Time;durP1;ratioP1;P1;durP2;ratioP2;P2;SDS_P1;SDS_P2;PMS_P1;PMS_P2;Temp;Humidity;BMP_temperature;BMP_pressure;BME280_temperature;BME280_humidity;BME280_pressure;Samples;Min_cycle;Max_cycle;Signal;HPM_P1;HPM_P2
2022/11/07 00:00:55;;;;;;;26.45;7.78;;;;;;;12.85;92.52;101108.63;5006074;28;20030;-70
2022/11/07 00:03:21;;;;;;;29.63;8.63;;;;;;;12.93;93.06;101161.38;4999777;28;20045;-69
2022/11/07 00:05:46;;;;;;;14.32;7.55;;;;;;;12.79;94.30;101161.31;5010775;28;20049;-69
2022/11/07 00:08:12;;;;;;;16.77;8.43;;;;;;;12.61;94.22;101139.31;4988113;28;20574;-68
2022/11/07 00:10:37;;;;;;;21.38;8.40;;;;;;;12.64;94.68;101163.03;4983356;28;20421;-68
2022/11/07 00:13:03;;;;;;;22.05;9.35;;;;;;;12.21;94.07;101051.44;5003842;28;20042;-68
2022/11/07 00:15:28;;;;;;;23.08;7.85;;;;;;;12.15;93.76;101028.63;5003241;28;20038;-68
2022/11/07 00:17:54;;;;;;;21.58;9.70;;;;;;;12.87;94.30;101181.50;5019451;28;20054;-69
2022/11/07 00:20:19;;;;;;;18.13;8.18;;;;;;;12.21;93.71;101054.06;5013275;28;20062;-69
2022/11/07 00:22:44;;;;;;;27.75;10.20;;;;;;;12.78;93.54;101147.28;5003178;28;20042;-70
2022/11/07 00:25:10;;;;;;;16.67;7.53;;;;;;;13.02;93.37;101177.19;5008678;28;20117;-69
2022/11/07 00:27:35;;;;;;;16.48;7.35;;;;;;;12.68;94.04;101148.09;5020049;28;20025;-68
2022/11/07 00:30:01;;;;;;;20.17;9.07;;;;;;;12.52;93.69;101098.91;5005697;28;20101;-69
2022/11/07 00:32:26;;;;;;;12.50;8.38;;;;;;;12.19;93.00;101026.88;5022103;28;20050;-69
2022/11/07 00:34:52;;;;;;;25.67;9.07;;;;;;;13.12;93.02;101173.69;5008017;28;20113;-68
2022/11/07 00:37:17;;;;;;;18.60;9.07;;;;;;;12.87;93.07;101152.53;4999076;28;20050;-69
2022/11/07 00:39:43;;;;;;;21.63;9.65;;;;;;;12.83;93.01;101149.91;5004278;28;20034;-68
2022/11/07 00:42:08;;;;;;;25.90;8.68;;;;;;;12.94;92.93;101145.53;5013955;28;20042;-70
2022/11/07 00:44:33;;;;;;;16.42;8.35;;;;;;;12.48;92.44;101055.03;5009421;28;20136;-69
2022/11/07 00:46:59;;;;;;;20.58;8.98;;;;;;;12.18;92.31;101022.50;5013505;28;20509;-68
2022/11/07 00:49:24;;;;;;;14.43;7.45;;;;;;;12.84;92.30;101127.97;4998923;28;20419;-69
2022/11/07 00:51:50;;;;;;;13.63;7.40;;;;;;;13.09;91.95;101149.97;4991611;28;20065;-69
2022/11/07 00:54:15;;;;;;;20.08;8.50;;;;;;;13.21;91.66;101178.09;5000079;28;20185;-68
2022/11/07 00:56:41;;;;;;;23.77;9.55;;;;;;;12.45;92.00;101041.00;4994724;28;20086;-69
2022/11/07 00:59:06;;;;;;;15.63;7.53;;;;;;;12.48;91.56;101047.13;5007284;28;20663;-69
2022/11/07 01:01:32;;;;;;;16.75;8.40;;;;;;;13.02;91.11;101121.88;4990375;28;20108;-68
2022/11/07 01:06:44;;;;;;;12.20;7.97;;;;;;;13.27;91.12;101170.19;5003762;28;20121;-69
2022/11/07 01:09:12;;;;;;;10.85;7.22;;;;;;;13.25;91.11;101174.56;4976289;28;20042;-69
2022/11/07 01:11:39;;;;;;;15.02;8.25;;;;;;;13.23;91.15;101165.81;5004244;28;20053;-70
2022/11/07 01:14:06;;;;;;;25.92;9.32;;;;;;;13.05;91.26;101146.44;5017635;28;20045;-69
2022/11/07 01:16:34;;;;;;;15.73;7.80;;;;;;;12.36;91.85;101030.44;5002218;28;20058;-69
2022/11/07 01:19:02;;;;;;;13.93;7.50;;;;;;;13.22;91.82;101175.44;4990488;28;20034;-69
2022/11/07 01:21:28;;;;;;;17.02;8.88;;;;;;;12.48;91.49;101036.59;5001810;28;20060;-69
2022/11/07 01:23:54;;;;;;;17.45;9.30;;;;;;;13.13;91.20;101149.06;5017877;28;20057;-68
2022/11/07 01:26:19;;;;;;;12.60;8.30;;;;;;;13.07;91.36;101151.72;5008762;28;20057;-68
2022/11/07 01:28:45;;;;;;;23.35;8.73;;;;;;;13.14;91.13;101157.88;5004415;28;20506;-67
2022/11/07 01:31:14;;;;;;;15.32;7.38;;;;;;;13.19;91.09;101158.78;5009283;28;20574;-67
2022/11/07 01:33:40;;;;;;;16.52;9.52;;;;;;;13.29;90.65;101161.44;4993022;28;20104;-69
2022/11/07 01:36:11;;;;;;;16.08;8.10;;;;;;;12.64;90.52;101059.44;4997425;28;20050;-69
2022/11/07 01:38:38;;;;;;;14.77;8.73;;;;;;;13.29;90.41;101171.09;5017168;28;20053;-69
2022/11/07 01:41:20;;;;;;;19.58;9.40;;;;;;;13.23;90.32;101166.69;5002291;28;20054;-68
2022/11/07 01:43:47;;;;;;;19.92;8.00;;;;;;;13.32;90.48;101170.22;4988234;28;20067;-70
2022/11/07 01:46:14;;;;;;;15.98;7.68;;;;;;;13.24;90.65;101157.00;4997012;28;20104;-69
2022/11/07 01:48:43;;;;;;;21.63;9.23;;;;;;;13.37;90.24;101173.72;4993497;28;20093;-69
2022/11/07 01:51:11;;;;;;;14.35;8.32;;;;;;;12.27;90.11;101026.88;5007999;28;20041;-69
2022/11/07 01:53:37;;;;;;;15.02;8.20;;;;;;;13.23;90.51;101171.94;5006534;28;20045;-68
2022/11/07 01:56:06;;;;;;;19.77;8.90;;;;;;;13.22;90.62;101175.44;4994127;28;20053;-69
2022/11/07 01:58:31;;;;;;;19.88;9.85;;;;;;;12.53;89.92;101043.66;5000989;28;20129;-69
2022/11/07 02:00:57;;;;;;;17.77;8.32;;;;;;;13.03;90.30;101134.16;5004409;28;20034;-69
2022/11/07 02:03:22;;;;;;;21.02;9.52;;;;;;;12.95;90.79;101175.41;4998096;28;20501;-68
2022/11/07 02:05:53;;;;;;;17.70;9.05;;;;;;;12.91;91.23;101177.16;5007931;28;20077;-69
2022/11/07 02:08:22;;;;;;;20.25;9.32;;;;;;;12.80;90.80;101134.97;5002240;28;20050;-68
2022/11/07 02:10:48;;;;;;;29.50;9.75;;;;;;;12.80;91.50;101182.38;5008344;28;20053;-68
2022/11/07 02:13:20;;;;;;;16.27;9.15;;;;;;;12.94;91.09;101177.16;4998521;28;20069;-69
2022/11/07 02:15:45;;;;;;;19.60;9.77;;;;;;;12.27;90.91;101050.56;5002050;28;20131;-68
2022/11/07 02:18:11;;;;;;;13.27;8.75;;;;;;;13.00;90.71;101168.41;4998924;28;20129;-69
2022/11/07 02:20:36;;;;;;;15.18;8.77;;;;;;;12.90;90.94;101172.78;5005581;28;20827;-69
2022/11/07 02:23:09;;;;;;;15.57;9.73;;;;;;;12.44;90.48;101068.19;5006167;28;20053;-69
2022/11/07 02:25:35;;;;;;;17.80;10.93;;;;;;;12.67;90.95;101127.94;5006272;28;20042;-68
2022/11/07 02:28:04;;;;;;;14.25;10.02;;;;;;;12.01;90.67;101004.91;5002174;28;20563;-68
2022/11/07 02:30:32;;;;;;;17.52;10.15;;;;;;;11.94;90.42;100984.72;4988561;28;20030;-68
2022/11/07 02:32:58;;;;;;;19.00;9.75;;;;;;;12.96;90.43;101150.81;5002460;28;20042;-69
2022/11/07 02:35:42;;;;;;;20.02;10.40;;;;;;;12.45;90.57;101098.91;5003137;28;20061;-69
2022/11/07 02:38:19;;;;;;;17.45;10.52;;;;;;;12.96;90.66;101167.50;4999955;28;20065;-68
2022/11/07 02:40:49;;;;;;;15.88;11.25;;;;;;;12.83;89.89;101139.34;5006805;28;20497;-69
2022/11/07 02:43:18;;;;;;;21.75;12.10;;;;;;;12.62;90.49;101129.69;4997841;28;20058;-69
2022/11/07 02:45:46;;;;;;;35.28;10.85;;;;;;;12.62;90.36;101092.81;4994573;28;20031;-68
2022/11/07 02:48:12;;;;;;;23.20;11.27;;;;;;;13.06;89.91;101157.84;4990971;28;20049;-69
2022/11/07 02:50:39;;;;;;;23.98;11.45;;;;;;;12.46;89.97;101058.53;4995707;28;20042;-69
2022/11/07 02:53:04;;;;;;;19.02;10.50;;;;;;;12.82;89.52;101132.34;4986606;28;20048;-69
2022/11/07 02:55:30;;;;;;;17.98;10.98;;;;;;;12.96;89.73;101158.72;4998914;28;20050;-69
2022/11/07 02:57:55;;;;;;;19.92;10.00;;;;;;;13.07;89.69;101164.91;5000907;28;20038;-69
2022/11/07 03:00:21;;;;;;;17.80;10.77;;;;;;;13.03;89.43;101168.41;5002626;28;20038;-69
2022/11/07 03:02:46;;;;;;;21.95;11.35;;;;;;;12.10;89.75;101046.13;4996835;28;20050;-69
2022/11/07 03:05:14;;;;;;;23.58;11.30;;;;;;;12.98;89.43;101172.78;5000444;28;20513;-70
2022/11/07 03:07:42;;;;;;;24.05;12.50;;;;;;;13.05;89.38;101166.66;5004662;28;20045;-68
2022/11/07 03:10:08;;;;;;;15.68;9.30;;;;;;;13.13;89.01;101182.47;5011259;28;20034;-69
2022/11/07 03:12:34;;;;;;;17.98;9.85;;;;;;;13.10;88.49;101171.03;4997999;28;20120;-70
2022/11/07 03:14:59;;;;;;;25.88;11.75;;;;;;;13.04;89.02;101188.59;5000836;28;20133;-69
2022/11/07 03:17:25;;;;;;;17.67;11.65;;;;;;;13.09;88.57;101193.00;4998947;28;20038;-69
2022/11/07 03:19:50;;;;;;;20.50;10.85;;;;;;;13.18;88.67;101188.63;5002604;28;20046;-69
2022/11/07 03:22:16;;;;;;;12.55;9.57;;;;;;;12.97;88.13;101149.94;5006320;28;20058;-69
2022/11/07 03:24:41;;;;;;;19.50;9.18;;;;;;;13.05;88.16;101154.34;5006621;28;20049;-69
2022/11/07 03:27:07;;;;;;;14.38;10.15;;;;;;;13.32;87.76;101180.75;5003082;28;20052;-69
2022/11/07 03:29:32;;;;;;;20.67;10.52;;;;;;;12.53;88.18;101059.44;5006337;28;20116;-69
2022/11/07 03:31:59;;;;;;;20.08;10.77;;;;;;;13.23;87.98;101186.91;5006330;28;20057;-69
2022/11/07 03:34:24;;;;;;;17.02;10.18;;;;;;;13.10;87.92;101170.16;5004587;28;20187;-70
2022/11/07 03:36:50;;;;;;;19.27;10.05;;;;;;;12.99;88.30;101156.09;5005819;28;20428;-69
2022/11/07 03:39:15;;;;;;;21.70;10.60;;;;;;;13.06;87.81;101177.19;4989934;28;20077;-69
2022/11/07 03:41:40;;;;;;;21.40;11.15;;;;;;;12.93;87.86;101162.22;5000231;28;20049;-69
2022/11/07 03:44:06;;;;;;;22.95;9.77;;;;;;;12.54;88.14;101074.34;5005294;28;20186;-69
2022/11/07 03:46:31;;;;;;;20.92;10.88;;;;;;;13.17;87.87;101177.19;5006116;28;20113;-69
2022/11/07 03:48:57;;;;;;;20.88;10.30;;;;;;;12.39;88.19;101063.78;5001864;28;20112;-69
2022/11/07 03:51:22;;;;;;;21.00;10.77;;;;;;;12.46;87.17;101044.50;5007258;28;20397;-69
2022/11/07 03:53:48;;;;;;;19.42;10.38;;;;;;;12.82;87.25;101114.78;5000276;28;20485;-68
2022/11/07 03:56:13;;;;;;;13.15;10.05;;;;;;;12.99;87.34;101150.81;5005120;28;20416;-69
2022/11/07 03:58:39;;;;;;;20.65;10.27;;;;;;;13.08;87.45;101169.28;4992555;28;20835;-69
2022/11/07 04:01:05;;;;;;;20.58;11.40;;;;;;;12.83;87.82;101136.72;4992399;28;20124;-68
2022/11/07 04:03:31;;;;;;;17.10;12.48;;;;;;;12.67;87.60;101096.34;5009535;28;20050;-68
2022/11/07 04:05:57;;;;;;;18.27;10.18;;;;;;;13.05;87.72;101185.09;5010646;28;20046;-69
2022/11/07 04:08:23;;;;;;;18.80;11.43;;;;;;;12.28;87.75;101054.97;4997234;28;20055;-69
2022/11/07 04:10:48;;;;;;;17.92;10.43;;;;;;;12.46;88.43;101110.31;5003541;28;20066;-68
2022/11/07 04:18:43;;;;;;;22.73;12.02;;;;;;;12.78;90.05;101173.63;5003486;28;20072;-69
2022/11/07 04:21:08;;;;;;;18.58;11.35;;;;;;;12.27;89.67;101064.63;5002603;28;20054;-70
2022/11/07 04:23:34;;;;;;;27.73;11.88;;;;;;;12.65;90.00;101174.44;5009063;28;20050;-70
2022/11/07 04:28:43;;;;;;;18.02;10.77;;;;;;;11.72;91.20;101045.94;5009449;28;20139;-68
2022/11/07 04:31:09;;;;;;;20.42;11.18;;;;;;;12.10;90.74;101093.47;5009469;28;20469;-69
2022/11/07 04:33:34;;;;;;;18.08;11.00;;;;;;;11.93;90.13;101047.81;5009993;28;20041;-68
2022/11/07 04:36:00;;;;;;;20.50;11.98;;;;;;;11.92;90.21;101046.06;5009272;28;20056;-68
2022/11/07 04:38:25;;;;;;;20.02;10.52;;;;;;;12.08;90.23;101065.41;4997795;28;20050;-69
2022/11/07 04:40:55;;;;;;;15.25;10.15;;;;;;;11.94;89.95;101047.84;5005957;28;20060;-68
2022/11/07 04:43:22;;;;;;;22.40;12.00;;;;;;;12.06;89.56;101047.00;5007756;28;20050;-70
2022/11/07 04:45:47;;;;;;;20.25;10.98;;;;;;;12.71;89.86;101153.38;4991973;28;20459;-69
2022/11/07 04:48:12;;;;;;;20.20;12.48;;;;;;;11.59;91.47;101045.88;5009333;28;20045;-69
2022/11/07 04:50:39;;;;;;;18.30;11.65;;;;;;;12.64;91.01;101177.94;5007424;28;20146;-68
2022/11/07 04:53:04;;;;;;;15.93;11.43;;;;;;;12.17;90.52;101068.94;5001781;28;20404;-68
2022/11/07 04:55:30;;;;;;;18.15;11.70;;;;;;;12.68;90.53;101151.63;5008516;28;20053;-70
2022/11/07 04:57:56;;;;;;;21.67;11.48;;;;;;;12.83;90.51;101178.88;5007433;28;20145;-67
2022/11/07 05:00:22;;;;;;;23.85;11.48;;;;;;;12.74;89.98;101150.78;4991937;28;20073;-68
2022/11/07 05:02:49;;;;;;;23.40;13.77;;;;;;;12.81;90.13;101184.16;5008559;28;20049;-67
2022/11/07 05:05:15;;;;;;;21.25;11.70;;;;;;;12.04;90.42;101043.50;4983509;28;20080;-68
2022/11/07 05:07:41;;;;;;;29.08;12.70;;;;;;;12.39;90.42;101106.78;4992950;28;20398;-69
2022/11/07 05:10:12;;;;;;;19.83;12.52;;;;;;;12.85;90.04;101179.75;4990588;28;20088;-69
2022/11/07 05:12:38;;;;;;;24.55;11.95;;;;;;;12.83;89.62;101169.25;4993762;28;20506;-69
2022/11/07 05:15:04;;;;;;;21.95;13.27;;;;;;;12.82;90.30;101192.94;4989068;28;20074;-69
2022/11/07 05:17:29;;;;;;;23.50;12.02;;;;;;;12.90;90.07;101201.75;5000279;28;20070;-69
2022/11/07 05:19:55;;;;;;;25.45;13.55;;;;;;;12.81;90.51;101188.53;4991155;28;20081;-69
2022/11/07 05:25:05;;;;;;;19.25;11.95;;;;;;;12.83;90.90;101216.66;5008666;28;20084;-69
2022/11/07 05:27:30;;;;;;;21.25;11.65;;;;;;;12.14;90.78;101073.34;4995309;28;20046;-68
2022/11/07 05:29:56;;;;;;;29.70;13.45;;;;;;;12.20;90.28;101066.34;5003314;28;20071;-68
2022/11/07 05:32:21;;;;;;;31.63;14.20;;;;;;;12.03;90.65;101066.28;5002730;28;20049;-68
2022/11/07 05:34:48;;;;;;;24.02;12.43;;;;;;;12.66;90.92;101179.69;4994523;28;20050;-68
2022/11/07 05:37:13;;;;;;;21.92;14.60;;;;;;;12.87;91.03;101212.25;4989412;28;20093;-70
2022/11/07 05:39:39;;;;;;;26.70;11.85;;;;;;;12.15;90.96;101097.03;4989668;28;20041;-69
2022/11/07 05:42:04;;;;;;;24.80;13.63;;;;;;;11.94;91.32;101079.41;5007341;28;20042;-68
2022/11/07 05:44:30;;;;;;;21.48;11.80;;;;;;;12.76;91.18;101196.44;4986337;28;20066;-69
2022/11/07 05:46:57;;;;;;;26.80;12.63;;;;;;;11.99;91.94;101106.59;4987740;28;20054;-69
2022/11/07 05:49:23;;;;;;;31.67;13.23;;;;;;;12.62;91.60;101201.63;4991852;28;20041;-70
2022/11/07 05:51:49;;;;;;;21.60;12.18;;;;;;;12.68;91.39;101188.47;4999261;28;20041;-70
2022/11/07 05:54:14;;;;;;;62.50;16.05;;;;;;;12.97;90.84;101228.97;4993534;28;20049;-69
2022/11/07 05:56:42;;;;;;;29.80;11.73;;;;;;;12.86;91.14;101232.44;5002051;28;20053;-70
2022/11/07 05:59:08;;;;;;;23.40;11.70;;;;;;;12.96;90.73;101238.63;4999106;28;20069;-70
2022/11/07 06:01:33;;;;;;;18.77;12.07;;;;;;;12.82;90.50;101222.78;4983781;28;20145;-70
2022/11/07 06:03:59;;;;;;;19.45;11.55;;;;;;;12.67;91.08;101213.06;4995799;28;20089;-70
2022/11/07 06:06:24;;;;;;;21.67;12.77;;;;;;;12.97;90.96;101247.41;4998891;28;20033;-70
2022/11/07 06:08:50;;;;;;;28.38;11.30;;;;;;;13.02;90.61;101243.06;4995919;28;20056;-68
2022/11/07 06:11:15;;;;;;;20.60;11.65;;;;;;;13.05;90.24;101248.31;4994888;28;20049;-69
2022/11/07 06:13:40;;;;;;;24.98;12.75;;;;;;;12.93;90.44;101245.66;4993271;28;20034;-70
2022/11/07 06:16:06;;;;;;;13.73;10.60;;;;;;;12.44;90.08;101184.00;4977641;28;20062;-69
2022/11/07 06:18:36;;;;;;;20.73;11.85;;;;;;;12.89;90.80;101265.81;4994884;28;20109;-69
2022/11/07 06:21:02;;;;;;;27.30;12.27;;;;;;;12.19;90.23;101153.16;5001367;28;20053;-68
2022/11/07 06:23:27;;;;;;;18.83;10.38;;;;;;;12.09;90.23;101139.09;5000845;28;20046;-68
2022/11/07 06:25:52;;;;;;;17.98;11.07;;;;;;;12.56;90.98;101290.25;4987781;28;20404;-70
2022/11/07 06:28:18;;;;;;;18.23;9.75;;;;;;;11.77;91.03;101139.72;4983204;28;20187;-69
2022/11/07 06:30:44;;;;;;;15.32;10.80;;;;;;;12.43;91.71;101279.66;4986260;28;20035;-67
2022/11/07 06:33:12;;;;;;;20.95;10.45;;;;;;;12.71;91.54;101294.69;5002837;28;20103;-69
2022/11/07 06:35:38;;;;;;;20.08;10.57;;;;;;;12.03;90.48;101163.63;4993977;28;20050;-69
2022/11/07 06:38:06;;;;;;;21.17;10.98;;;;;;;12.19;91.89;101295.25;4985531;28;20057;-69
2022/11/07 06:40:32;;;;;;;17.73;10.20;;;;;;;12.03;92.79;101289.88;4990245;28;20052;-70
2022/11/07 06:43:09;;;;;;;23.55;11.02;;;;;;;11.85;92.05;101202.91;4986617;28;20126;-69
2022/11/07 06:45:35;;;;;;;17.35;9.98;;;;;;;11.68;91.34;101176.47;4989186;28;20164;-69
2022/11/07 06:48:00;;;;;;;26.63;10.85;;;;;;;11.25;92.28;101183.97;4994253;28;20125;-69
2022/11/07 06:50:26;;;;;;;14.23;10.30;;;;;;;11.72;93.83;101307.09;4991986;28;20046;-70
2022/11/07 06:52:51;;;;;;;17.52;10.68;;;;;;;11.60;94.37;101309.59;4975869;28;20046;-68
2022/11/07 06:55:16;;;;;;;16.08;11.38;;;;;;;11.07;94.44;101205.69;4997145;28;20886;-70
2022/11/07 06:57:42;;;;;;;17.85;11.32;;;;;;;11.17;93.22;101181.28;4987700;28;20034;-69
2022/11/07 07:00:08;;;;;;;16.27;11.43;;;;;;;11.97;93.46;101317.88;4992022;28;20517;-69
2022/11/07 07:02:34;;;;;;;24.00;11.98;;;;;;;11.69;94.01;101317.56;4980946;28;20054;-68
2022/11/07 07:04:59;;;;;;;22.20;12.00;;;;;;;10.99;93.67;101191.59;4979997;28;20403;-68
2022/11/07 07:07:25;;;;;;;15.40;11.35;;;;;;;11.71;93.78;101318.47;4981597;28;20121;-69
2022/11/07 07:09:50;;;;;;;23.27;11.60;;;;;;;11.26;93.10;101170.00;4984658;28;20038;-68
2022/11/07 07:12:15;;;;;;;22.27;13.45;;;;;;;11.96;93.57;101324.91;4983585;28;20397;-67
2022/11/07 07:14:41;;;;;;;20.33;13.00;;;;;;;12.06;91.61;101314.41;4980676;28;20465;-67
2022/11/07 07:17:06;;;;;;;18.40;10.20;;;;;;;11.56;94.91;101164.09;4989777;28;20066;-67
2022/11/07 07:19:32;;;;;;;20.60;10.32;;;;;;;11.88;91.64;101231.00;4981916;28;20053;-67
2022/11/07 07:21:57;;;;;;;17.58;11.07;;;;;;;12.02;89.88;101175.00;4980664;28;20027;-67
2022/11/07 07:24:23;;;;;;;17.77;11.65;;;;;;;12.71;88.85;101310.50;4954732;28;20031;-68
2022/11/07 07:26:48;;;;;;;18.38;10.48;;;;;;;12.08;89.88;101328.47;4984215;28;20054;-68
2022/11/07 07:29:15;;;;;;;18.77;10.73;;;;;;;11.17;91.12;101210.19;4989264;28;20494;-68
2022/11/07 07:31:40;;;;;;;17.38;10.93;;;;;;;11.60;93.07;101330.63;4985968;28;20096;-67
2022/11/07 07:34:06;;;;;;;17.40;10.50;;;;;;;11.71;95.22;101320.22;4983812;28;20462;-68
2022/11/07 07:36:32;;;;;;;15.90;10.65;;;;;;;11.29;93.09;101293.50;4992300;28;20526;-70
2022/11/07 07:38:57;;;;;;;22.35;12.45;;;;;;;11.15;91.85;101238.19;4957415;28;20058;-70
2022/11/07 07:41:23;;;;;;;15.10;11.60;;;;;;;11.55;90.54;101269.25;4990901;28;20149;-71
2022/11/07 07:43:48;;;;;;;19.65;11.32;;;;;;;10.60;91.75;101198.13;4989120;28;20054;-69
2022/11/07 07:46:21;;;;;;;13.98;9.57;;;;;;;10.32;92.29;101171.56;4994542;28;20057;-69
2022/11/07 07:48:47;;;;;;;18.48;11.20;;;;;;;11.33;92.16;101334.72;4990187;28;20065;-68
2022/11/07 07:51:12;;;;;;;19.40;11.95;;;;;;;11.09;90.99;101226.72;4979119;28;20070;-70
2022/11/07 07:53:38;;;;;;;18.13;10.45;;;;;;;11.88;89.28;101339.72;4987125;28;20042;-71
2022/11/07 07:56:05;;;;;;;12.63;8.90;;;;;;;11.18;88.04;101205.81;4969711;28;20383;-70
2022/11/07 07:58:31;;;;;;;17.02;10.48;;;;;;;12.05;87.69;101345.13;4988859;28;20053;-75
2022/11/07 08:00:59;;;;;;;17.92;10.18;;;;;;;11.37;88.65;101304.97;4991956;28;20034;-75
2022/11/07 08:03:26;;;;;;;20.92;10.13;;;;;;;11.75;88.49;101327.25;4990125;28;20062;-69
2022/11/07 08:05:57;;;;;;;15.85;9.05;;;;;;;11.43;87.08;101195.56;4987961;28;20058;-70
2022/11/07 08:08:24;;;;;;;15.20;8.82;;;;;;;11.26;86.14;101266.31;4989049;28;20061;-70
2022/11/07 08:10:53;;;;;;;24.92;10.18;;;;;;;11.90;86.75;101356.38;4982479;28;20058;-71
2022/11/07 08:13:22;;;;;;;21.60;9.52;;;;;;;12.11;85.39;101337.28;4989044;28;20046;-71
2022/11/07 08:15:48;;;;;;;17.90;9.38;;;;;;;11.80;85.94;101312.44;4992367;28;20390;-72
2022/11/07 08:18:14;;;;;;;22.40;11.07;;;;;;;11.51;84.81;101204.38;4990343;28;20043;-72
2022/11/07 08:20:40;;;;;;;23.17;11.15;;;;;;;12.43;84.94;101352.44;4980896;28;20042;-71
2022/11/07 08:23:08;;;;;;;20.45;11.50;;;;;;;12.66;83.54;101349.97;4983796;28;20885;-69
2022/11/07 08:25:33;;;;;;;17.15;10.02;;;;;;;12.54;83.18;101353.41;4983396;28;20061;-72
2022/11/07 08:27:59;;;;;;;15.07;8.15;;;;;;;11.44;84.53;101247.22;4986904;28;20418;-71
2022/11/07 08:30:27;;;;;;;14.95;7.90;;;;;;;11.14;84.55;101206.63;4986169;28;20517;-78
2022/11/07 08:32:53;;;;;;;22.65;9.07;;;;;;;11.80;84.37;101350.13;4968551;28;20057;-73
2022/11/07 08:35:19;;;;;;;17.10;8.18;;;;;;;11.66;85.70;101362.25;4991832;28;20061;-72
2022/11/07 08:37:44;;;;;;;23.30;9.10;;;;;;;11.39;84.76;101266.44;4995073;28;20055;-72
2022/11/07 08:40:11;;;;;;;12.73;8.80;;;;;;;10.86;85.53;101215.94;4970382;28;20073;-72
2022/11/07 08:42:37;;;;;;;20.45;10.15;;;;;;;10.97;85.25;101230.09;4984581;28;20042;-73
2022/11/07 08:45:03;;;;;;;17.88;9.65;;;;;;;11.36;84.95;101257.66;4984875;28;20045;-74
2022/11/07 08:47:29;;;;;;;17.55;8.80;;;;;;;12.19;83.96;101348.75;4982951;28;20050;-72
2022/11/07 08:49:54;;;;;;;19.33;8.70;;;;;;;11.91;84.21;101334.47;4988866;28;20049;-73
2022/11/07 08:52:19;;;;;;;18.77;9.55;;;;;;;11.73;83.85;101268.50;5007009;28;20540;-74
2022/11/07 08:57:20;;;;;;;17.52;8.77;;;;;;;12.33;83.21;101346.22;4645457;26;20124;-76
2022/11/07 08:59:46;;;;;;;21.30;10.32;;;;;;;12.46;83.02;101329.66;5006032;28;20042;-76
2022/11/07 09:02:12;;;;;;;19.35;10.02;;;;;;;12.44;81.96;101262.97;5002290;28;20051;-75
2022/11/07 09:04:37;;;;;;;28.80;12.60;;;;;;;12.54;82.18;101345.50;5003341;28;20508;-75
2022/11/07 09:07:03;;;;;;;23.50;9.20;;;;;;;12.46;82.80;101353.34;4988731;28;20556;-75
2022/11/07 09:09:28;;;;;;;13.90;9.98;;;;;;;11.16;84.27;101218.03;5004090;28;20476;-76
2022/11/07 09:11:54;;;;;;;17.65;9.82;;;;;;;11.89;84.32;101330.94;5001010;28;20501;-76
2022/11/07 09:14:19;;;;;;;27.85;10.48;;;;;;;11.66;83.48;101246.56;5008158;28;20037;-76
2022/11/07 09:16:45;;;;;;;13.68;9.88;;;;;;;11.49;82.98;101203.47;5007972;28;20763;-75
2022/11/07 09:19:10;;;;;;;21.95;11.25;;;;;;;12.23;83.19;101321.59;5011338;28;20065;-75
2022/11/07 09:21:36;;;;;;;20.58;10.07;;;;;;;11.68;82.29;101218.53;4997062;28;20429;-74
2022/11/07 09:24:01;;;;;;;18.25;9.15;;;;;;;12.84;81.60;101336.03;5009787;28;20048;-75
2022/11/07 09:26:27;;;;;;;19.75;9.50;;;;;;;12.48;81.60;101305.09;5006138;28;20469;-75
2022/11/07 09:28:53;;;;;;;22.83;10.60;;;;;;;11.69;82.09;101208.91;5007345;28;20053;-75
2022/11/07 09:31:18;;;;;;;17.98;9.82;;;;;;;12.50;82.30;101334.94;5006916;28;20050;-75
2022/11/07 09:33:44;;;;;;;17.90;9.85;;;;;;;12.25;82.40;101330.38;5007019;28;20064;-75
2022/11/07 09:36:11;;;;;;;13.43;8.55;;;;;;;12.32;82.62;101333.06;5005380;28;20497;-74
2022/11/07 09:38:37;;;;;;;19.83;10.63;;;;;;;12.63;82.09;101327.13;5004853;28;20467;-75
2022/11/07 09:41:14;;;;;;;24.25;10.32;;;;;;;12.55;81.15;101317.41;4995031;28;20111;-75
2022/11/07 09:44:08;;;;;;;13.27;9.00;;;;;;;11.83;81.30;101202.88;5008192;28;20163;-75
2022/11/07 09:46:55;;;;;;;18.98;10.43;;;;;;;12.75;80.28;101318.44;4969864;28;20062;-74
2022/11/07 09:49:45;;;;;;;24.58;9.73;;;;;;;12.51;81.37;101295.47;4993818;28;20050;-74
2022/11/07 09:52:27;;;;;;;20.73;11.10;;;;;;;11.83;80.62;101176.59;5004655;28;20096;-74
2022/11/07 09:55:00;;;;;;;23.05;10.38;;;;;;;12.61;80.75;101301.66;5002992;28;20033;-75
2022/11/07 09:57:31;;;;;;;16.38;9.10;;;;;;;12.48;80.20;101278.75;4999534;28;20061;-74
2022/11/07 10:00:02;;;;;;;16.48;9.07;;;;;;;11.80;80.38;101180.97;5005208;28;20259;-74
2022/11/07 10:02:32;;;;;;;16.67;8.63;;;;;;;12.12;80.97;101219.78;5010761;28;20062;-75
2022/11/07 10:05:02;;;;;;;20.48;9.63;;;;;;;12.42;80.76;101277.88;5004228;28;20053;-75
2022/11/07 10:30:16;;;;;;;22.75;10.40;;;;;;;12.47;78.02;101172.59;4954870;28;21032;-74
2022/11/07 10:33:04;;;;;;;15.45;9.32;;;;;;;13.39;77.61;101277.44;4963076;28;20082;-75
2022/11/07 10:35:36;;;;;;;23.15;10.75;;;;;;;13.41;77.12;101265.13;4963369;28;20038;-75
2022/11/07 10:38:18;;;;;;;19.15;10.55;;;;;;;13.52;76.86;101245.81;4966024;28;20093;-75
2022/11/07 10:40:45;;;;;;;17.45;10.55;;;;;;;13.15;75.99;101160.50;4959433;28;20059;-75
2022/11/07 10:43:22;;;;;;;17.75;9.98;;;;;;;13.37;76.69;101248.44;4962072;28;20592;-75
2022/11/07 10:45:49;;;;;;;15.60;9.48;;;;;;;13.58;75.95;101241.44;4965733;28;20043;-76
2022/11/07 10:48:14;;;;;;;19.85;10.70;;;;;;;13.64;75.58;101229.13;4966337;28;20026;-75
2022/11/07 10:50:50;;;;;;;21.42;9.65;;;;;;;13.68;75.37;101240.56;4955267;28;20796;-76
2022/11/07 10:53:18;;;;;;;25.77;11.20;;;;;;;13.68;75.52;101237.94;4963588;28;20276;-76
2022/11/07 10:55:47;;;;;;;20.02;10.98;;;;;;;13.55;73.65;101138.59;4961876;28;20043;-75
2022/11/07 10:58:21;;;;;;;21.05;12.15;;;;;;;13.92;74.43;101239.69;4956657;28;20518;-76
2022/11/07 11:01:05;;;;;;;20.73;12.25;;;;;;;13.79;74.93;101235.28;4963561;28;20165;-74
2022/11/07 11:03:43;;;;;;;19.85;10.98;;;;;;;13.36;76.29;101212.41;4963612;28;20051;-75
2022/11/07 11:06:32;;;;;;;17.10;10.70;;;;;;;13.92;74.52;101221.22;4963981;28;20050;-74
2022/11/07 11:09:10;;;;;;;21.48;11.02;;;;;;;14.25;73.69;101211.50;4962010;28;20071;-74
2022/11/07 11:11:36;;;;;;;27.58;12.32;;;;;;;14.18;73.21;101217.66;4936441;28;20056;-75
2022/11/07 11:14:13;;;;;;;16.30;11.57;;;;;;;13.97;73.11;101169.31;4963419;28;20412;-75
2022/11/07 11:16:41;;;;;;;13.80;9.90;;;;;;;13.85;73.28;101193.97;4964800;28;20062;-76
2022/11/07 11:19:23;;;;;;;20.70;12.00;;;;;;;13.43;73.11;101092.91;4964260;28;20050;-76
2022/11/07 11:21:51;;;;;;;23.13;12.20;;;;;;;13.29;73.38;101069.19;4964689;28;20201;-75
2022/11/07 11:24:29;;;;;;;20.73;11.63;;;;;;;14.00;73.45;101198.34;4963895;28;20476;-75
2022/11/07 11:26:57;;;;;;;18.60;11.25;;;;;;;14.00;73.44;101198.34;4965668;28;20035;-76
2022/11/07 11:29:33;;;;;;;28.13;9.45;;;;;;;13.83;73.30;101171.09;4962362;28;20142;-75
2022/11/07 11:32:02;;;;;;;20.20;9.30;;;;;;;14.23;73.31;101202.69;4960629;28;20782;-76
2022/11/07 11:34:27;;;;;;;20.75;12.52;;;;;;;14.05;72.00;101122.69;4966701;28;20474;-73
2022/11/07 11:37:14;;;;;;;20.80;12.20;;;;;;;13.80;73.30;101198.38;4965191;28;20101;-73
2022/11/07 11:40:01;;;;;;;16.60;10.68;;;;;;;13.73;73.56;101165.84;4945275;28;20375;-73
2022/11/07 11:42:46;;;;;;;23.40;10.75;;;;;;;13.93;73.30;101194.84;4961378;28;20831;-73
2022/11/07 11:45:28;;;;;;;19.63;10.02;;;;;;;13.82;73.20;101183.41;4976127;28;20034;-74
2022/11/07 11:48:09;;;;;;;24.73;11.45;;;;;;;13.28;73.01;101067.44;4969681;28;20085;-75
2022/11/07 11:50:44;;;;;;;25.75;10.85;;;;;;;13.80;73.45;101197.50;4963351;28;20093;-74
2022/11/07 11:53:19;;;;;;;19.45;10.45;;;;;;;13.19;73.10;101070.03;4958752;28;20090;-74